Time;durP1;ratioP1;P1;durP2;ratioP2;P2;SDS_P1;SDS_P2;PMS_P1;PMS_P2;Temp;Humidity;BMP_temperature;BMP_pressure;BME280_temperature;BME280_humidity;BME280_pressure;Samples;Min_cycle;Max_cycle;Signal;HPM_P1;HPM_P2
2023/09/22 00:00:15;;;;;;;11.90;3.60;;;22.00;86.50;;;;;;5089418;28;20193;-85
2023/09/22 00:02:46;;;;;;;9.33;2.87;;;22.00;86.30;;;;;;5093501;28;20694;-81
2023/09/22 00:05:14;;;;;;;8.27;3.13;;;22.00;86.10;;;;;;5078472;28;20277;-80
2023/09/22 00:07:42;;;;;;;10.97;2.97;;;22.00;85.80;;;;;;5075251;28;20205;-80
2023/09/22 00:10:10;;;;;;;12.03;3.37;;;22.00;85.60;;;;;;5060615;28;20655;-80
2023/09/22 00:12:37;;;;;;;10.33;3.10;;;22.00;85.60;;;;;;5096791;28;20262;-81
2023/09/22 00:15:05;;;;;;;5.87;3.10;;;21.90;85.50;;;;;;5076679;28;20224;-80
2023/09/22 00:17:35;;;;;;;7.23;2.80;;;21.80;85.60;;;;;;5074466;28;20251;-80
2023/09/22 00:20:07;;;;;;;6.17;2.90;;;21.70;85.60;;;;;;5065826;28;20205;-81
2023/09/22 00:22:35;;;;;;;6.33;3.00;;;21.60;85.80;;;;;;5075160;28;20209;-81
2023/09/22 00:25:03;;;;;;;4.53;2.60;;;21.50;86.10;;;;;;5069565;28;20634;-80
2023/09/22 00:27:56;;;;;;;5.50;2.70;;;21.50;86.40;;;;;;5070492;28;20231;-81
2023/09/22 00:30:23;;;;;;;9.83;3.03;;;21.40;86.80;;;;;;5089432;28;20255;-80
2023/09/22 00:32:52;;;;;;;6.10;2.90;;;21.40;86.90;;;;;;5075143;28;20201;-81
2023/09/22 00:35:19;;;;;;;9.97;3.17;;;21.40;87.10;;;;;;5087271;28;20201;-80
2023/09/22 00:37:46;;;;;;;7.37;2.33;;;21.40;87.40;;;;;;5058338;28;20194;-80
2023/09/22 00:40:14;;;;;;;8.40;2.90;;;21.40;87.40;;;;;;5071846;28;20254;-80
2023/09/22 00:42:41;;;;;;;9.63;2.87;;;21.40;87.50;;;;;;5064544;28;20220;-80
2023/09/22 00:45:09;;;;;;;8.53;3.97;;;21.30;87.60;;;;;;5052840;28;20197;-80
2023/09/22 00:47:37;;;;;;;7.37;3.03;;;21.40;87.70;;;;;;5074003;28;20259;-80
2023/09/22 00:50:09;;;;;;;7.50;2.53;;;21.30;87.50;;;;;;5090992;28;20544;-80
2023/09/22 00:52:38;;;;;;;7.37;3.33;;;21.30;87.60;;;;;;5094568;28;20201;-80
2023/09/22 00:55:07;;;;;;;8.47;3.17;;;21.30;87.60;;;;;;5059053;28;20240;-80
2023/09/22 00:57:34;;;;;;;4.30;2.80;;;21.20;87.60;;;;;;5073016;28;20256;-81
2023/09/22 01:00:03;;;;;;;11.43;3.37;;;21.20;87.70;;;;;;5078309;28;20201;-80
2023/09/22 01:02:31;;;;;;;9.93;3.13;;;21.20;87.80;;;;;;5069313;28;20214;-80
2023/09/22 01:05:00;;;;;;;7.57;3.07;;;21.20;87.70;;;;;;5083503;28;20196;-81
2023/09/22 01:07:27;;;;;;;7.20;2.93;;;21.30;87.70;;;;;;5082069;28;20536;-80
2023/09/22 01:09:54;;;;;;;10.87;2.87;;;21.30;88.30;;;;;;5061324;28;20232;-80
2023/09/22 01:12:21;;;;;;;11.53;3.10;;;21.30;87.60;;;;;;5077124;28;20193;-80
2023/09/22 01:14:48;;;;;;;5.70;2.70;;;21.20;88.10;;;;;;5064678;28;20267;-81
2023/09/22 01:17:16;;;;;;;7.73;3.13;;;21.20;87.70;;;;;;5065508;28;20239;-81
2023/09/22 01:19:43;;;;;;;8.57;3.63;;;21.20;87.80;;;;;;5088900;28;20221;-80
2023/09/22 01:22:11;;;;;;;8.67;3.40;;;21.20;87.90;;;;;;5070803;28;20218;-80
2023/09/22 01:24:38;;;;;;;9.00;3.40;;;21.20;88.20;;;;;;5065859;28;20201;-80
2023/09/22 01:27:05;;;;;;;6.60;3.00;;;21.20;88.50;;;;;;5075534;28;20208;-81
2023/09/22 01:29:33;;;;;;;7.77;2.80;;;21.20;88.80;;;;;;5055524;28;20333;-81
2023/09/22 01:32:00;;;;;;;9.70;2.70;;;21.20;89.10;;;;;;5069479;28;20202;-80
2023/09/22 01:34:28;;;;;;;5.20;2.90;;;21.20;89.30;;;;;;5065872;28;20228;-80
2023/09/22 01:36:57;;;;;;;12.80;3.63;;;21.20;89.10;;;;;;5092932;28;20201;-81
2023/09/22 01:39:25;;;;;;;5.73;2.60;;;21.20;88.80;;;;;;5067995;28;20248;-80
2023/09/22 01:41:52;;;;;;;11.10;2.73;;;21.20;88.80;;;;;;5074261;28;20225;-80
2023/09/22 01:44:19;;;;;;;7.27;3.20;;;21.20;89.10;;;;;;5049773;28;20213;-80
2023/09/22 01:46:47;;;;;;;10.17;3.33;;;21.20;89.10;;;;;;5065156;28;20194;-81
2023/09/22 01:49:14;;;;;;;7.17;3.50;;;21.20;89.40;;;;;;5074322;28;20227;-81
2023/09/22 01:51:42;;;;;;;10.73;3.70;;;21.20;89.50;;;;;;5074746;28;20202;-80
2023/09/22 01:54:09;;;;;;;8.30;2.90;;;21.20;89.50;;;;;;5072543;28;20253;-81
2023/09/22 01:56:37;;;;;;;13.00;3.77;;;21.10;89.60;;;;;;5094480;28;20203;-80
2023/09/22 01:59:04;;;;;;;14.93;4.67;;;21.20;90.10;;;;;;5062263;28;20264;-81
2023/09/22 02:01:31;;;;;;;9.20;3.70;;;21.20;89.50;;;;;;5067595;28;20233;-80
2023/09/22 02:03:59;;;;;;;6.53;3.10;;;21.20;89.40;;;;;;5064955;28;20297;-81
2023/09/22 02:06:27;;;;;;;8.60;3.90;;;21.20;89.40;;;;;;5079904;28;20194;-80
2023/09/22 02:08:55;;;;;;;7.77;3.70;;;21.20;89.50;;;;;;5069346;28;20201;-80
2023/09/22 02:11:22;;;;;;;8.70;3.37;;;21.20;89.50;;;;;;5066569;28;20270;-80
2023/09/22 02:13:49;;;;;;;11.33;3.53;;;21.10;89.40;;;;;;5069046;28;20236;-80
2023/09/22 02:16:16;;;;;;;14.30;4.00;;;21.10;89.70;;;;;;5087638;28;20197;-81
2023/09/22 02:18:44;;;;;;;7.83;3.77;;;21.10;89.80;;;;;;5079487;28;20202;-81
2023/09/22 02:21:13;;;;;;;9.00;3.27;;;21.10;90.00;;;;;;5074706;28;20230;-80
2023/09/22 02:23:40;;;;;;;11.30;3.70;;;21.20;90.10;;;;;;5058538;28;20779;-80
2023/09/22 02:26:07;;;;;;;10.47;3.87;;;21.20;90.10;;;;;;5084444;28;20205;-80
2023/09/22 02:28:35;;;;;;;8.50;3.57;;;21.20;90.10;;;;;;5074217;28;20197;-80
2023/09/22 02:31:02;;;;;;;12.20;3.50;;;21.20;90.10;;;;;;5071897;28;20640;-80
2023/09/22 02:33:30;;;;;;;7.60;3.30;;;21.20;90.10;;;;;;5053435;28;20707;-81
2023/09/22 02:35:59;;;;;;;7.30;3.60;;;21.20;90.10;;;;;;5065999;28;20213;-81
2023/09/22 02:38:26;;;;;;;14.30;4.10;;;21.20;90.20;;;;;;5074768;28;20288;-80
2023/09/22 02:40:53;;;;;;;14.93;3.73;;;21.20;90.20;;;;;;5052252;28;20215;-80
2023/09/22 02:43:21;;;;;;;7.77;4.33;;;21.10;90.30;;;;;;5067734;28;20229;-80
2023/09/22 02:45:49;;;;;;;8.17;3.90;;;21.10;90.30;;;;;;5053576;28;20201;-80
2023/09/22 02:48:16;;;;;;;6.53;3.30;;;21.20;90.40;;;;;;5077667;28;20246;-80
2023/09/22 02:50:45;;;;;;;7.93;3.50;;;21.10;90.50;;;;;;5073558;28;20201;-80
2023/09/22 02:53:12;;;;;;;13.10;3.57;;;21.10;90.50;;;;;;5086243;28;20206;-80
2023/09/22 02:55:39;;;;;;;9.37;3.63;;;21.10;90.60;;;;;;5065239;28;20202;-80
2023/09/22 02:58:08;;;;;;;14.50;4.20;;;21.10;90.70;;;;;;5084610;28;20292;-80
2023/09/22 03:00:36;;;;;;;11.47;3.70;;;21.10;90.80;;;;;;5053505;28;20197;-80
2023/09/22 03:03:03;;;;;;;7.80;3.53;;;21.10;90.80;;;;;;5066308;28;20220;-81
2023/09/22 03:05:31;;;;;;;6.77;3.00;;;21.10;90.90;;;;;;5077773;28;20217;-80
2023/09/22 03:07:58;;;;;;;7.70;3.57;;;21.10;91.00;;;;;;5078388;28;20188;-80
2023/09/22 03:10:26;;;;;;;10.90;4.07;;;21.10;91.00;;;;;;5054276;28;20213;-81
2023/09/22 03:12:53;;;;;;;8.93;3.60;;;21.10;91.00;;;;;;5073716;28;20208;-80
2023/09/22 03:15:23;;;;;;;13.27;4.47;;;21.10;91.00;;;;;;5076767;28;20205;-80
2023/09/22 03:17:51;;;;;;;9.13;3.67;;;21.10;91.00;;;;;;5067084;28;20210;-81
2023/09/22 03:20:18;;;;;;;9.03;4.50;;;21.00;91.00;;;;;;5066406;28;20606;-81
2023/09/22 03:22:46;;;;;;;10.17;3.30;;;21.00;91.00;;;;;;5069433;28;20232;-80
2023/09/22 03:25:14;;;;;;;9.77;4.30;;;21.00;91.10;;;;;;5050316;28;20617;-81
2023/09/22 03:27:43;;;;;;;8.97;3.70;;;21.00;91.20;;;;;;5065882;28;20308;-80
2023/09/22 03:30:15;;;;;;;9.10;4.00;;;21.00;91.20;;;;;;5066986;28;20688;-80
2023/09/22 03:32:43;;;;;;;10.90;3.90;;;21.00;91.20;;;;;;5066808;28;20247;-80
2023/09/22 03:35:36;;;;;;;9.93;3.53;;;21.00;91.20;;;;;;5044389;28;20226;-79
2023/09/22 03:38:09;;;;;;;10.23;3.50;;;21.00;91.30;;;;;;5058482;28;20681;-81
2023/09/22 03:41:00;;;;;;;8.67;3.73;;;21.10;91.30;;;;;;5065735;28;20247;-81
2023/09/22 03:43:28;;;;;;;10.37;4.03;;;21.00;91.30;;;;;;5065837;28;20655;-81
2023/09/22 03:46:04;;;;;;;9.67;3.77;;;21.10;91.40;;;;;;5051100;28;20229;-80
2023/09/22 03:48:35;;;;;;;10.87;3.50;;;21.10;91.40;;;;;;5066698;28;20243;-80
2023/09/22 03:51:03;;;;;;;5.60;3.37;;;21.10;91.30;;;;;;5057830;28;20197;-81
2023/09/22 03:53:35;;;;;;;8.50;3.50;;;21.10;91.20;;;;;;5082195;28;20235;-80
2023/09/22 03:56:07;;;;;;;9.73;3.20;;;21.20;91.20;;;;;;5057933;28;20303;-80
2023/09/22 03:58:36;;;;;;;11.63;3.80;;;21.20;91.10;;;;;;5071534;28;20254;-81
2023/09/22 04:01:08;;;;;;;7.53;3.50;;;21.20;91.10;;;;;;5066732;28;20267;-80
2023/09/22 04:03:38;;;;;;;8.97;3.50;;;21.30;91.10;;;;;;5074567;28;20220;-80
2023/09/22 04:06:18;;;;;;;11.03;3.43;;;21.30;91.10;;;;;;5071296;28;20212;-80
2023/09/22 04:08:46;;;;;;;9.17;3.87;;;21.30;91.10;;;;;;5054819;28;20576;-81
2023/09/22 04:11:14;;;;;;;5.27;3.77;;;21.30;91.10;;;;;;5076745;28;20297;-81
2023/09/22 04:13:53;;;;;;;8.87;3.23;;;21.30;91.10;;;;;;5060971;28;20706;-81
2023/09/22 04:16:46;;;;;;;9.77;3.90;;;21.30;91.10;;;;;;5071662;28;20292;-81
2023/09/22 04:19:19;;;;;;;12.10;3.70;;;21.30;91.00;;;;;;5059021;28;20197;-80
2023/09/22 04:21:48;;;;;;;14.17;3.43;;;21.30;91.00;;;;;;5073988;28;20217;-80
2023/09/22 04:24:34;;;;;;;8.87;4.13;;;21.30;91.00;;;;;;5049471;28;20216;-81
2023/09/22 04:27:06;;;;;;;6.47;3.50;;;21.40;91.10;;;;;;5082222;28;20553;-80
2023/09/22 05:12:36;;;;;;;10.87;4.17;;;21.20;91.10;;;;;;5077734;27;1585906;-63
2023/09/22 05:15:04;;;;;;;13.17;4.80;;;21.20;91.30;;;;;;5103376;28;20212;-63
2023/09/22 05:17:34;;;;;;;10.97;4.43;;;21.10;91.40;;;;;;5128144;28;20266;-62
2023/09/22 05:20:11;;;;;;;10.63;5.27;;;21.10;91.50;;;;;;5110506;28;20298;-63
2023/09/22 05:22:39;;;;;;;12.67;5.93;;;21.10;91.60;;;;;;5093760;28;20206;-63
2023/09/22 05:25:07;;;;;;;18.67;7.23;;;21.10;91.60;;;;;;5102503;28;20195;-63
2023/09/22 05:27:35;;;;;;;15.33;6.73;;;21.10;91.70;;;;;;5126174;28;20292;-63
2023/09/22 05:30:06;;;;;;;19.83;7.27;;;21.10;91.70;;;;;;5125132;28;20224;-63
2023/09/22 05:32:34;;;;;;;14.23;6.30;;;21.20;91.70;;;;;;5126312;28;20216;-63
2023/09/22 05:35:01;;;;;;;23.87;7.07;;;21.20;91.60;;;;;;5121705;28;20702;-62
2023/09/22 05:37:28;;;;;;;13.50;6.43;;;21.30;91.70;;;;;;5126942;28;20204;-63
2023/09/22 05:39:55;;;;;;;12.17;6.30;;;21.30;91.70;;;;;;5124536;28;20211;-63
2023/09/22 05:42:23;;;;;;;14.23;4.87;;;21.40;91.70;;;;;;5112466;28;20199;-63
2023/09/22 05:44:50;;;;;;;14.00;6.10;;;21.40;91.70;;;;;;5115648;28;20282;-63
2023/09/22 05:47:18;;;;;;;14.10;5.67;;;21.50;91.60;;;;;;5114709;28;20251;-63
2023/09/22 05:49:47;;;;;;;12.70;4.60;;;21.60;91.60;;;;;;5106086;28;20311;-63
2023/09/22 05:52:14;;;;;;;10.80;4.17;;;21.70;91.60;;;;;;5111937;28;20193;-63
2023/09/22 05:54:41;;;;;;;25.07;6.17;;;21.80;91.40;;;;;;5114873;28;20188;-63
2023/09/22 05:57:08;;;;;;;7.17;4.03;;;21.80;91.20;;;;;;5112005;28;20628;-63
2023/09/22 05:59:37;;;;;;;11.57;4.40;;;21.90;91.10;;;;;;5112566;28;20193;-63
2023/09/22 06:02:05;;;;;;;9.03;3.47;;;21.90;91.00;;;;;;5113168;28;20204;-63
2023/09/22 06:04:33;;;;;;;12.50;3.90;;;21.90;90.90;;;;;;5109624;28;20217;-63
2023/09/22 06:07:02;;;;;;;10.30;3.80;;;22.00;90.90;;;;;;5112567;28;20531;-63
2023/09/22 06:09:31;;;;;;;7.83;3.50;;;22.00;90.90;;;;;;5112639;28;20220;-63
2023/09/22 06:11:58;;;;;;;7.87;3.87;;;22.10;90.90;;;;;;5110555;28;20680;-63
2023/09/22 06:14:26;;;;;;;11.20;3.83;;;22.10;90.70;;;;;;5113654;28;20236;-63
2023/09/22 06:16:53;;;;;;;6.30;2.80;;;22.20;90.60;;;;;;5110673;28;20563;-62
2023/09/22 06:19:20;;;;;;;10.20;4.03;;;22.20;90.50;;;;;;5111284;28;20279;-62
2023/09/22 06:21:47;;;;;;;10.03;3.67;;;22.30;90.30;;;;;;5113890;28;20283;-62
2023/09/22 06:24:14;;;;;;;7.00;3.43;;;22.30;90.10;;;;;;5110913;28;20202;-63
2023/09/22 06:26:41;;;;;;;14.10;3.30;;;22.40;90.00;;;;;;5109666;28;20193;-63
2023/09/22 06:29:09;;;;;;;6.47;3.00;;;22.50;89.60;;;;;;5111704;28;20669;-63
2023/09/22 06:31:37;;;;;;;6.13;2.93;;;22.50;89.20;;;;;;5113657;28;20611;-63
2023/09/22 06:34:05;;;;;;;7.53;3.20;;;22.60;88.90;;;;;;5112210;28;20200;-63
2023/09/22 06:36:32;;;;;;;8.87;3.43;;;22.60;88.60;;;;;;5111538;28;20744;-63
2023/09/22 06:39:03;;;;;;;6.13;3.10;;;22.70;88.50;;;;;;5111817;28;20253;-63
2023/09/22 06:41:30;;;;;;;14.00;3.63;;;22.80;88.40;;;;;;5112813;28;20192;-63
2023/09/22 06:43:57;;;;;;;10.67;3.00;;;23.00;88.20;;;;;;5111050;28;20253;-63
2023/09/22 06:46:25;;;;;;;7.83;3.77;;;23.10;87.80;;;;;;5110131;28;20196;-63
2023/09/22 06:48:52;;;;;;;11.47;3.80;;;23.20;87.40;;;;;;5114822;28;20239;-63
2023/09/22 06:51:20;;;;;;;12.43;3.70;;;23.30;86.40;;;;;;5109276;28;20200;-63
2023/09/22 06:53:47;;;;;;;8.40;3.13;;;23.40;86.00;;;;;;5114172;28;20206;-64
2023/09/22 06:56:18;;;;;;;16.43;3.70;;;23.50;86.00;;;;;;5113711;28;20208;-63
2023/09/22 06:58:47;;;;;;;10.17;3.37;;;23.60;86.10;;;;;;5105149;28;20567;-63
2023/09/22 07:01:16;;;;;;;10.00;3.53;;;23.70;86.30;;;;;;5111515;28;20197;-63
2023/09/22 07:03:46;;;;;;;6.57;2.90;;;23.70;86.10;;;;;;5112128;28;20341;-63
2023/09/22 07:06:19;;;;;;;9.73;3.50;;;23.80;85.90;;;;;;5112705;28;20197;-62
2023/09/22 07:08:47;;;;;;;5.50;2.83;;;23.80;85.40;;;;;;5111127;28;20276;-63
2023/09/22 07:11:16;;;;;;;8.13;3.27;;;23.80;85.40;;;;;;5113411;28;20196;-61
2023/09/22 07:13:43;;;;;;;7.47;3.10;;;23.90;85.40;;;;;;5109850;28;20252;-63
2023/09/22 07:16:11;;;;;;;9.13;3.10;;;23.90;85.30;;;;;;5111440;28;20201;-62
2023/09/22 07:18:39;;;;;;;7.87;3.33;;;23.90;85.30;;;;;;5110011;28;20203;-63
2023/09/22 07:21:09;;;;;;;13.17;4.17;;;24.00;85.30;;;;;;5111643;28;20291;-63
2023/09/22 07:23:37;;;;;;;9.10;3.50;;;24.00;85.40;;;;;;5112662;28;20281;-61
2023/09/22 07:26:08;;;;;;;10.83;3.13;;;24.10;85.50;;;;;;5096574;28;20204;-61
2023/09/22 07:28:36;;;;;;;13.50;3.60;;;24.10;85.30;;;;;;5112572;28;20593;-62
2023/09/22 07:31:13;;;;;;;8.27;3.33;;;24.10;85.00;;;;;;5109151;28;20220;-64
2023/09/22 07:33:43;;;;;;;13.33;3.70;;;24.20;85.10;;;;;;5110187;28;20283;-62
2023/09/22 07:36:11;;;;;;;11.70;3.20;;;24.20;85.00;;;;;;5112001;28;20201;-62
2023/09/22 07:38:39;;;;;;;8.63;3.13;;;24.20;84.70;;;;;;5110839;28;20239;-63
2023/09/22 07:41:06;;;;;;;11.90;3.83;;;24.30;84.60;;;;;;5111947;28;20193;-63
2023/09/22 07:43:33;;;;;;;13.47;3.73;;;24.30;84.90;;;;;;5095582;28;20220;-64
2023/09/22 07:46:04;;;;;;;9.83;3.13;;;24.30;85.20;;;;;;5112603;28;20284;-62
2023/09/22 07:48:32;;;;;;;12.20;3.70;;;24.30;85.50;;;;;;5112695;28;20204;-63
2023/09/22 07:51:00;;;;;;;8.03;3.87;;;24.30;85.90;;;;;;5110437;28;20578;-63
2023/09/22 07:53:28;;;;;;;15.97;3.90;;;24.30;86.10;;;;;;5110747;28;20265;-63
2023/09/22 07:55:59;;;;;;;12.00;3.57;;;24.30;86.40;;;;;;5112503;28;20285;-65
2023/09/22 07:58:30;;;;;;;12.57;3.40;;;24.30;86.70;;;;;;5113912;28;20200;-63
2023/09/22 08:00:59;;;;;;;7.30;4.20;;;24.30;87.10;;;;;;5110840;28;20196;-64
2023/09/22 08:03:27;;;;;;;11.37;3.73;;;24.30;87.30;;;;;;5112965;28;20209;-62
2023/09/22 08:05:55;;;;;;;9.77;3.80;;;24.30;87.50;;;;;;5108983;28;20189;-63
2023/09/22 08:08:24;;;;;;;14.07;4.07;;;24.20;87.90;;;;;;5113172;28;20623;-63
2023/09/22 08:10:51;;;;;;;11.53;4.10;;;24.20;88.40;;;;;;5095672;28;20259;-63
2023/09/22 08:13:21;;;;;;;16.00;4.60;;;24.10;89.00;;;;;;5110360;28;20237;-63
2023/09/22 08:15:48;;;;;;;12.43;4.07;;;24.10;89.20;;;;;;5094379;28;20201;-64
2023/09/22 08:18:15;;;;;;;16.47;4.33;;;24.10;89.30;;;;;;5112355;28;20279;-65
2023/09/22 08:20:42;;;;;;;5.97;3.33;;;24.00;89.30;;;;;;5112932;28;20207;-64
2023/09/22 08:23:09;;;;;;;8.30;3.60;;;24.00;89.60;;;;;;5110935;28;20218;-65
2023/09/22 08:25:38;;;;;;;12.90;4.30;;;23.90;89.50;;;;;;5093935;28;20658;-64
2023/09/22 08:28:05;;;;;;;17.93;4.43;;;23.90;89.30;;;;;;5108874;28;20204;-63
2023/09/22 08:30:32;;;;;;;9.47;4.00;;;23.90;89.30;;;;;;5109493;28;20250;-62
2023/09/22 08:33:00;;;;;;;17.93;4.53;;;23.80;89.50;;;;;;5079169;28;20628;-62
2023/09/22 08:35:27;;;;;;;11.53;3.60;;;23.80;90.00;;;;;;5089924;28;20354;-62
2023/09/22 08:37:54;;;;;;;9.83;4.00;;;23.80;90.30;;;;;;5094451;28;20204;-63
2023/09/22 08:40:22;;;;;;;14.20;4.70;;;23.70;90.50;;;;;;5073089;28;20215;-63
2023/09/22 08:42:51;;;;;;;11.57;4.57;;;23.70;90.80;;;;;;5107523;28;20196;-63
2023/09/22 08:45:20;;;;;;;11.77;4.30;;;23.70;91.20;;;;;;5112038;28;20223;-62
2023/09/22 08:47:49;;;;;;;11.57;4.17;;;23.60;91.30;;;;;;5107152;28;20266;-62
2023/09/22 08:50:19;;;;;;;11.97;4.60;;;23.50;91.50;;;;;;5108448;28;20224;-63
2023/09/22 08:52:51;;;;;;;19.43;5.67;;;23.50;91.70;;;;;;5093543;28;20616;-65
2023/09/22 08:55:21;;;;;;;17.30;5.20;;;23.40;91.90;;;;;;5072386;28;20243;-64
2023/09/22 08:57:49;;;;;;;15.77;4.60;;;23.40;92.20;;;;;;5109885;28;20189;-66
2023/09/22 09:00:26;;;;;;;13.30;4.83;;;23.40;92.40;;;;;;5112908;28;20205;-65
2023/09/22 09:02:58;;;;;;;13.13;5.47;;;23.40;92.50;;;;;;5105066;28;20591;-65
2023/09/22 09:05:30;;;;;;;22.83;5.90;;;23.30;92.50;;;;;;5112081;28;20261;-63
2023/09/22 09:08:14;;;;;;;14.43;4.80;;;23.30;92.50;;;;;;5106266;28;20602;-65
2023/09/22 09:10:49;;;;;;;16.33;5.37;;;23.30;92.70;;;;;;5108684;28;20304;-63
2023/09/22 09:13:26;;;;;;;12.57;5.17;;;23.30;92.70;;;;;;5110902;28;20235;-64
2023/09/22 09:15:54;;;;;;;11.93;4.67;;;23.30;92.70;;;;;;5108504;28;20196;-64
2023/09/22 09:18:24;;;;;;;12.50;4.73;;;23.30;92.70;;;;;;5112442;28;20207;-65
